createdAt,value
2019-04-03T00:02:56.686Z,4.80
2019-04-03T00:08:01.737Z,5.10
2019-04-03T00:13:06.808Z,5.10
2019-04-03T00:18:12.014Z,4.90
2019-04-03T00:23:17.226Z,3.80
2019-04-03T00:28:24.268Z,4.63
2019-04-03T00:33:30.141Z,4.87
2019-04-03T00:38:35.587Z,4.63
2019-04-03T00:43:40.360Z,4.70
2019-04-03T00:48:45.523Z,4.30
2019-04-03T00:53:50.486Z,4.30
2019-04-03T00:58:55.950Z,4.40
2019-04-03T01:04:00.989Z,4.27
2019-04-03T01:09:07.244Z,4.30
2019-04-03T01:14:12.573Z,4.10
2019-04-03T01:19:17.325Z,4.87
2019-04-03T01:24:22.309Z,4.50
2019-04-03T01:29:28.360Z,3.87
2019-04-03T01:34:33.884Z,4.17
2019-04-03T01:39:39.087Z,3.97
2019-04-03T01:44:44.365Z,3.93
2019-04-03T01:49:49.743Z,4.70
2019-04-03T01:54:54.672Z,4.30
2019-04-03T01:59:59.606Z,4.87
2019-04-03T02:05:05.078Z,4.40
2019-04-03T02:10:17.302Z,4.00
2019-04-03T02:15:22.296Z,4.70
2019-04-03T02:20:27.632Z,5.13
2019-04-03T02:25:32.615Z,5.00
2019-04-03T02:30:37.519Z,5.07
2019-04-03T02:35:41.092Z,5.30
2019-04-03T02:40:44.613Z,5.27
2019-04-03T02:45:48.284Z,5.53
2019-04-03T02:50:52.158Z,5.93
2019-04-03T02:55:55.674Z,5.60
2019-04-03T03:00:59.449Z,5.27
2019-04-03T03:06:04.596Z,5.93
2019-04-03T03:11:10.210Z,5.73
2019-04-03T03:16:18.125Z,6.17
2019-04-03T03:21:21.879Z,5.90
2019-04-03T03:26:26.519Z,6.20
2019-04-03T03:31:59.853Z,6.40
2019-04-03T03:36:39.334Z,6.70
2019-04-03T03:41:44.047Z,6.57
2019-04-03T03:46:48.673Z,6.20
2019-04-03T03:51:54.922Z,7.00
2019-04-03T03:57:03.927Z,7.33
2019-04-03T04:02:06.790Z,7.17
2019-04-03T04:07:11.875Z,7.57
2019-04-03T04:12:16.963Z,7.27
2019-04-03T04:17:21.873Z,6.60
2019-04-03T04:22:28.272Z,7.50
2019-04-03T04:27:37.899Z,7.23
2019-04-03T04:32:40.788Z,6.93
2019-04-03T04:37:47.092Z,6.70
2019-04-03T04:42:52.524Z,6.50
2019-04-03T04:47:57.764Z,7.33
2019-04-03T04:53:04.212Z,6.47
2019-04-03T04:58:09.663Z,6.33
2019-04-03T05:03:16.564Z,6.57
2019-04-03T05:08:22.633Z,6.83
2019-04-03T05:13:28.408Z,6.23
2019-04-03T05:18:33.683Z,6.97
2019-04-03T05:23:39.239Z,6.60
2019-04-03T05:28:55.751Z,6.87
2019-04-03T05:33:52.767Z,7.80
2019-04-03T05:38:58.911Z,8.13
2019-04-03T05:44:04.815Z,8.93
2019-04-03T05:49:11.007Z,7.90
2019-04-03T05:54:16.275Z,8.10
2019-04-03T05:59:21.808Z,8.40
2019-04-03T06:04:26.981Z,8.43
2019-04-03T06:09:32.221Z,9.00
2019-04-03T06:14:37.352Z,7.37
2019-04-03T06:19:42.439Z,5.70
2019-04-03T06:24:47.539Z,6.10
2019-04-03T06:29:55.027Z,4.53
2019-04-03T06:35:00.517Z,4.47
2019-04-03T06:40:07.004Z,4.20
2019-04-03T06:45:15.388Z,4.50
2019-04-03T06:50:20.285Z,4.27
2019-04-03T06:55:25.955Z,3.70
2019-04-03T07:00:31.037Z,4.03
2019-04-03T07:05:35.988Z,4.10
2019-04-03T07:10:41.165Z,4.50
2019-04-03T07:15:46.733Z,4.37
2019-04-03T07:20:52.733Z,4.20
2019-04-03T07:25:58.382Z,4.23
2019-04-03T07:31:04.403Z,4.10
2019-04-03T07:36:10.802Z,4.10
2019-04-03T07:41:15.118Z,4.20
2019-04-03T07:46:19.735Z,3.50
2019-04-03T07:51:24.117Z,4.10
2019-04-03T07:56:29.985Z,4.03
2019-04-03T08:01:34.222Z,4.00
2019-04-03T08:06:39.722Z,4.87
2019-04-03T08:11:44.316Z,4.77
2019-04-03T08:16:49.751Z,4.83
2019-04-03T08:21:55.265Z,4.63
2019-04-03T08:27:00.793Z,5.10
2019-04-03T08:32:06.501Z,5.60
2019-04-03T08:37:12.914Z,5.37
2019-04-03T08:42:19.164Z,5.73
2019-04-03T08:47:25.316Z,7.10
2019-04-03T08:52:30.867Z,6.83
2019-04-03T08:57:36.470Z,7.60
2019-04-03T09:02:43.477Z,7.40
2019-04-03T09:07:49.212Z,2.60
2019-04-03T09:12:54.479Z,2.20
2019-04-03T09:17:59.748Z,1.90
2019-04-03T09:23:17.010Z,2.17
2019-04-03T09:28:21.891Z,1.80
2019-04-03T09:33:29.377Z,1.73
2019-04-03T09:38:36.335Z,2.13
2019-04-03T09:43:42.201Z,1.50
2019-04-03T09:48:48.520Z,1.30
2019-04-03T09:53:54.102Z,1.30
2019-04-03T09:58:59.945Z,1.30
2019-04-03T10:04:05.716Z,1.20
2019-04-03T10:09:12.029Z,1.40
2019-04-03T10:14:18.102Z,1.30
2019-04-03T10:19:23.830Z,1.33
2019-04-03T10:24:30.863Z,1.17
2019-04-03T10:29:35.893Z,1.23
2019-04-03T10:34:41.461Z,1.53
2019-04-03T10:39:46.498Z,2.27
2019-04-03T10:44:52.685Z,1.10
2019-04-03T10:49:58.577Z,1.20
2019-04-03T10:55:04.800Z,1.50
2019-04-03T11:00:13.306Z,1.73
2019-04-03T11:05:20.516Z,1.50
2019-04-03T11:10:26.190Z,1.20
2019-04-03T11:15:31.459Z,1.30
2019-04-03T11:20:37.127Z,1.70
2019-04-03T11:25:45.776Z,1.40
2019-04-03T11:30:49.623Z,1.70
2019-04-03T11:35:54.810Z,1.30
2019-04-03T11:41:11.359Z,1.20
2019-04-03T11:46:06.552Z,1.23
2019-04-03T11:51:10.949Z,1.10
2019-04-03T11:56:16.416Z,1.10
2019-04-03T12:01:20.319Z,1.40
2019-04-03T12:06:25.256Z,1.30
2019-04-03T12:11:29.993Z,1.20
2019-04-03T12:16:33.713Z,1.47
2019-04-03T12:21:38.084Z,1.40
2019-04-03T12:26:43.588Z,1.37
2019-04-03T12:31:49.294Z,1.37
2019-04-03T12:36:53.668Z,1.40
2019-04-03T12:41:58.300Z,1.50
2019-04-03T12:47:05.082Z,1.10
2019-04-03T12:52:09.245Z,1.50
2019-04-03T12:57:13.598Z,1.80
2019-04-03T13:02:19.063Z,1.47
2019-04-03T13:07:25.074Z,1.40
2019-04-03T13:12:30.432Z,1.50
2019-04-03T13:17:35.939Z,1.53
2019-04-03T13:22:42.569Z,1.70
2019-04-03T13:27:49.716Z,1.90
2019-04-03T13:32:59.574Z,1.80
2019-04-03T13:38:02.698Z,1.40
2019-04-03T13:43:07.687Z,1.70
2019-04-03T13:48:13.878Z,1.73
2019-04-03T13:53:20.964Z,1.40
2019-04-03T13:58:28.494Z,1.90
2019-04-03T14:03:33.568Z,2.00
2019-04-03T14:08:39.119Z,2.00
2019-04-03T14:13:44.433Z,1.70
2019-04-03T14:18:51.222Z,1.90
2019-04-03T14:23:56.855Z,1.87
2019-04-03T14:29:02.414Z,1.93
2019-04-03T14:34:08.995Z,1.73
2019-04-03T14:39:14.490Z,1.70
2019-04-03T14:44:20.616Z,1.73
2019-04-03T14:49:30.835Z,1.90
2019-04-03T14:54:34.551Z,2.17
2019-04-03T14:59:39.723Z,2.33
2019-04-03T15:04:45.385Z,2.37
2019-04-03T15:09:50.421Z,2.40
2019-04-03T15:14:56.018Z,2.20
2019-04-03T15:20:01.397Z,2.47
2019-04-03T15:25:07.977Z,2.47
2019-04-03T15:30:14.495Z,2.80
2019-04-03T15:35:19.946Z,3.00
2019-04-03T15:40:26.394Z,4.00
2019-04-03T15:45:32.434Z,2.83
2019-04-03T15:50:39.082Z,1.80
2019-04-03T15:55:44.720Z,1.10
2019-04-03T16:00:50.640Z,1.60
2019-04-03T16:05:56.466Z,1.83
2019-04-03T16:11:05.964Z,1.80
2019-04-03T16:16:11.566Z,2.00
2019-04-03T16:21:16.667Z,1.90
2019-04-03T16:26:23.868Z,1.70
2019-04-03T16:36:56.648Z,1.60
2019-04-03T16:42:02.475Z,1.90
2019-04-03T16:47:08.402Z,2.93
2019-04-03T16:52:14.521Z,2.33
2019-04-03T16:57:22.567Z,2.10
2019-04-03T17:02:29.111Z,2.50
2019-04-03T17:07:37.435Z,2.70
2019-04-03T17:12:45.206Z,2.47
2019-04-03T17:17:50.015Z,2.63
2019-04-03T17:22:55.816Z,2.57
2019-04-03T17:28:07.385Z,2.07
2019-04-03T17:33:10.930Z,2.60
2019-04-03T17:38:16.402Z,2.53
2019-04-03T17:43:24.996Z,2.50
2019-04-03T17:48:30.066Z,3.20
2019-04-03T17:53:44.384Z,2.63
2019-04-03T18:04:04.671Z,6.30
2019-04-03T18:09:10.369Z,4.90
2019-04-03T18:14:15.954Z,3.83
2019-04-03T18:19:21.370Z,3.57
2019-04-03T18:24:33.800Z,3.37
2019-04-03T18:29:39.521Z,3.30
2019-04-03T18:34:48.406Z,2.67
2019-04-03T18:39:52.459Z,3.10
2019-04-03T18:44:57.841Z,2.83
2019-04-03T18:50:10.410Z,3.10
2019-04-03T18:55:15.974Z,3.73
2019-04-03T19:00:30.729Z,3.33
2019-04-03T19:05:36.546Z,3.60
2019-04-03T19:11:01.519Z,3.03
2019-04-03T19:16:02.009Z,2.97
2019-04-03T19:21:05.377Z,3.07
2019-04-03T19:26:19.159Z,2.30
2019-04-03T19:31:23.388Z,2.23
2019-04-03T19:36:29.657Z,2.70
2019-04-03T19:41:32.599Z,2.23
2019-04-03T19:46:36.632Z,2.07
2019-04-03T19:51:41.193Z,2.03
2019-04-03T19:56:51.300Z,1.90
2019-04-03T20:02:05.765Z,2.17
2019-04-03T20:07:13.372Z,2.10
2019-04-03T20:12:24.485Z,2.80
2019-04-03T20:17:34.751Z,2.40
2019-04-03T20:22:42.411Z,1.87
2019-04-03T20:27:51.433Z,2.30
2019-04-03T20:33:00.558Z,2.30
2019-04-03T20:38:07.410Z,2.60
2019-04-03T20:43:13.048Z,2.80
2019-04-03T20:48:18.703Z,2.63
2019-04-03T20:53:31.491Z,3.10
2019-04-03T20:58:39.952Z,3.77
2019-04-03T21:03:44.310Z,4.10
2019-04-03T21:08:49.938Z,4.50
2019-04-03T21:13:54.936Z,5.37
2019-04-03T21:19:00.154Z,5.47
2019-04-03T21:24:05.632Z,5.10
2019-04-03T21:29:10.997Z,4.80
2019-04-03T21:34:16.157Z,5.47
2019-04-03T21:39:22.262Z,7.70
2019-04-03T21:44:27.649Z,9.47
2019-04-03T21:49:32.602Z,8.70
2019-04-03T21:54:40.268Z,9.30
2019-04-03T21:59:51.461Z,9.13
2019-04-03T22:04:57.943Z,9.23
2019-04-03T22:10:09.371Z,9.40
2019-04-03T22:15:15.778Z,9.60
2019-04-03T22:20:20.964Z,8.50
2019-04-03T22:25:25.926Z,6.40
2019-04-03T22:30:31.160Z,5.60
2019-04-03T22:35:36.306Z,5.63
2019-04-03T22:40:41.932Z,5.60
2019-04-03T22:45:46.926Z,6.00
2019-04-03T22:50:51.853Z,6.17
2019-04-03T22:55:56.715Z,6.83
2019-04-03T23:01:01.077Z,7.67
2019-04-03T23:06:06.185Z,8.50
2019-04-03T23:11:10.367Z,7.80
2019-04-03T23:16:16.264Z,9.20
2019-04-03T23:21:23.507Z,8.43
2019-04-03T23:26:26.673Z,9.83
2019-04-03T23:31:30.786Z,10.07
2019-04-03T23:36:34.809Z,11.00
2019-04-03T23:41:38.967Z,12.37
2019-04-03T23:46:45.503Z,12.70
2019-04-03T23:51:50.999Z,11.53
2019-04-03T23:56:56.252Z,13.10
